Time;durP1;ratioP1;P1;durP2;ratioP2;P2;SDS_P1;SDS_P2;PMS_P1;PMS_P2;Temp;Humidity;BMP_temperature;BMP_pressure;BME280_temperature;BME280_humidity;BME280_pressure;Samples;Min_cycle;Max_cycle;Signal;HPM_P1;HPM_P2
2021/12/14 00:01:36;;;;;;;19.80;12.80;;;;;;;0.33;93.58;100132.06;106342;1315;22504;-62
2021/12/14 00:04:18;;;;;;;17.80;11.10;;;;;;;0.31;93.65;100127.59;105630;1323;139097;-61
2021/12/14 00:06:48;;;;;;;18.60;11.50;;;;;;;0.32;93.91;100134.61;105864;1325;22499;-60
2021/12/14 00:09:30;;;;;;;18.50;10.90;;;;;;;0.33;93.84;100137.02;105719;1325;139033;-60
2021/12/14 00:15:58;;;;;;;19.80;11.80;;;;;;;0.39;93.88;100140.67;99158;1355;545770;-59
2021/12/14 00:18:27;;;;;;;18.80;11.50;;;;;;;0.39;93.77;100145.51;104850;1331;22498;-60
2021/12/14 00:20:58;;;;;;;16.70;11.20;;;;;;;0.38;93.61;100148.63;104928;1332;139157;-60
2021/12/14 00:26:16;;;;;;;20.90;11.20;;;;;;;0.37;93.89;100146.95;104943;1328;139294;-60
2021/12/14 00:28:44;;;;;;;19.00;11.80;;;;;;;0.37;93.74;100145.71;104899;1326;163531;-60
2021/12/14 00:31:24;;;;;;;19.80;11.50;;;;;;;0.37;93.72;100147.52;105408;1326;22468;-60
2021/12/14 00:33:54;;;;;;;16.00;9.60;;;;;;;0.37;93.62;100147.12;105208;1325;137472;-60
2021/12/14 00:36:22;;;;;;;15.10;10.10;;;;;;;0.35;93.35;100145.39;105407;1325;23437;-61
2021/12/14 00:38:54;;;;;;;18.90;11.10;;;;;;;0.33;93.55;100142.21;105254;1325;138564;-60
2021/12/14 00:41:26;;;;;;;13.80;9.40;;;;;;;0.32;93.55;100138.39;105329;1330;22608;-60
2021/12/14 00:43:55;;;;;;;16.20;11.20;;;;;;;0.32;93.46;100139.23;105115;1331;138516;-61
2021/12/14 00:46:25;;;;;;;15.40;10.40;;;;;;;0.32;93.72;100137.45;105218;1328;22480;-60
2021/12/14 00:48:53;;;;;;;14.70;10.90;;;;;;;0.32;93.90;100133.73;105199;1329;22407;-60
2021/12/14 00:51:26;;;;;;;19.20;12.10;;;;;;;0.34;93.83;100136.91;104884;1332;137762;-60
2021/12/14 00:53:56;;;;;;;18.50;11.30;;;;;;;0.35;93.68;100135.94;105182;1328;22507;-60
2021/12/14 00:56:24;;;;;;;14.40;10.50;;;;;;;0.35;93.69;100137.48;104816;1329;138149;-60
2021/12/14 00:58:52;;;;;;;17.90;10.60;;;;;;;0.36;93.79;100140.48;105016;1328;23268;-60
2021/12/14 01:01:28;;;;;;;16.70;10.00;;;;;;;0.35;93.80;100139.33;105054;1329;22423;-60
2021/12/14 01:04:00;;;;;;;14.80;9.50;;;;;;;0.36;93.88;100138.65;104782;1328;138914;-60
2021/12/14 01:06:31;;;;;;;16.10;10.10;;;;;;;0.38;93.68;100139.54;105183;1329;23269;-60
2021/12/14 01:09:01;;;;;;;13.80;10.00;;;;;;;0.37;93.80;100136.94;104843;1332;137878;-60
2021/12/14 01:11:38;;;;;;;14.20;9.50;;;;;;;0.38;93.72;100141.63;105195;1328;22580;-60
2021/12/14 01:14:14;;;;;;;18.20;11.20;;;;;;;0.39;93.72;100142.83;105123;1329;139254;-60
2021/12/14 01:17:06;;;;;;;20.70;11.30;;;;;;;0.38;93.77;100143.46;105169;1326;22627;-60
2021/12/14 01:19:36;;;;;;;16.90;10.60;;;;;;;0.36;93.88;100147.27;105072;1328;22492;-60
2021/12/14 01:27:31;;;;;;;23.90;12.60;;;;;;;0.32;93.49;100148.78;104848;1328;141323;-60
2021/12/14 01:30:05;;;;;;;18.50;12.80;;;;;;;0.31;93.74;100156.33;105033;1328;22529;-60
2021/12/14 01:32:38;;;;;;;22.30;13.50;;;;;;;0.31;93.82;100152.47;105089;1329;137876;-60
2021/12/14 01:35:12;;;;;;;21.00;12.40;;;;;;;0.32;93.74;100154.67;105001;1332;23330;-59
2021/12/14 01:37:58;;;;;;;21.10;11.70;;;;;;;0.32;93.90;100156.45;104972;1328;23382;-56
2021/12/14 01:40:53;;;;;;;27.30;13.90;;;;;;;0.32;93.77;100156.39;104995;1328;23291;-55
2021/12/14 01:43:25;;;;;;;31.90;14.30;;;;;;;0.33;93.75;100158.13;104969;1328;22498;-56
2021/12/14 01:45:55;;;;;;;33.30;16.30;;;;;;;0.32;93.78;100153.70;104754;1331;138047;-56
2021/12/14 01:48:24;;;;;;;27.70;13.90;;;;;;;0.32;93.70;100158.36;105177;1328;22478;-56
2021/12/14 01:51:10;;;;;;;21.70;13.00;;;;;;;0.31;93.52;100155.31;105211;1325;138358;-56
2021/12/14 01:53:53;;;;;;;20.50;11.60;;;;;;;0.30;93.74;100157.73;105178;1325;22513;-56
2021/12/14 01:56:23;;;;;;;20.70;12.60;;;;;;;0.29;93.66;100158.95;105076;1328;139839;-56
2021/12/14 01:58:53;;;;;;;24.20;14.30;;;;;;;0.28;93.69;100159.90;104673;1325;22506;-56
2021/12/14 02:01:24;;;;;;;26.00;15.70;;;;;;;0.28;93.75;100161.22;105111;1329;22603;-56
2021/12/14 02:03:56;;;;;;;23.50;14.30;;;;;;;0.28;93.70;100163.36;105196;1325;138817;-56
2021/12/14 02:06:28;;;;;;;19.00;12.20;;;;;;;0.27;93.73;100158.40;105194;1328;22482;-60
2021/12/14 02:09:15;;;;;;;21.70;13.40;;;;;;;0.26;93.62;100156.64;105055;1325;138364;-60
2021/12/14 02:11:51;;;;;;;18.10;12.70;;;;;;;0.23;93.55;100152.45;105701;1324;22382;-60
2021/12/14 02:14:36;;;;;;;16.50;11.30;;;;;;;0.23;93.70;100151.26;105682;1323;140360;-60
2021/12/14 02:17:12;;;;;;;18.00;11.50;;;;;;;0.23;93.92;100147.84;105690;1322;22584;-61
2021/12/14 02:19:40;;;;;;;19.70;12.20;;;;;;;0.23;93.82;100150.88;105771;1324;22394;-60
2021/12/14 02:22:08;;;;;;;18.70;12.10;;;;;;;0.22;93.91;100155.27;105687;1321;140714;-61
2021/12/14 02:24:38;;;;;;;19.20;12.30;;;;;;;0.22;93.89;100150.95;105819;1322;22395;-61
2021/12/14 02:27:06;;;;;;;19.10;13.20;;;;;;;0.24;93.91;100152.52;105823;1321;138209;-61
2021/12/14 02:29:38;;;;;;;16.30;11.20;;;;;;;0.24;93.89;100146.63;105761;1322;22422;-61
2021/12/14 02:32:18;;;;;;;18.50;12.70;;;;;;;0.26;93.77;100150.20;105788;1325;22527;-62
2021/12/14 02:34:54;;;;;;;17.00;10.90;;;;;;;0.27;93.58;100151.38;105318;1323;140174;-62
2021/12/14 02:37:34;;;;;;;16.30;11.30;;;;;;;0.25;93.88;100146.02;105759;1321;22448;-62
2021/12/14 02:40:13;;;;;;;14.70;10.50;;;;;;;0.24;93.87;100144.92;105824;1323;139033;-62
2021/12/14 02:42:42;;;;;;;15.80;10.60;;;;;;;0.22;93.78;100146.38;105951;1320;22399;-62
2021/12/14 02:45:10;;;;;;;18.10;10.70;;;;;;;0.19;93.75;100145.07;105764;1323;139160;-62
2021/12/14 02:47:38;;;;;;;17.80;11.30;;;;;;;0.18;93.68;100147.73;105966;1320;23717;-62
2021/12/14 02:50:06;;;;;;;16.00;10.40;;;;;;;0.18;93.81;100147.42;105564;1322;22456;-62
2021/12/14 02:52:36;;;;;;;13.80;10.20;;;;;;;0.17;94.05;100147.42;105602;1323;138123;-62
2021/12/14 02:55:06;;;;;;;16.70;11.20;;;;;;;0.17;93.92;100152.27;105906;1326;23369;-62
2021/12/14 02:57:36;;;;;;;16.60;10.70;;;;;;;0.18;93.89;100150.77;105690;1319;138940;-61
2021/12/14 03:00:09;;;;;;;16.20;11.40;;;;;;;0.19;93.95;100155.09;105901;1319;22528;-61
2021/12/14 03:02:37;;;;;;;19.10;12.30;;;;;;;0.20;93.81;100154.25;105668;1322;138703;-61
2021/12/14 03:05:22;;;;;;;17.00;11.60;;;;;;;0.20;94.07;100154.95;105626;1321;22482;-61
2021/12/14 03:08:00;;;;;;;17.90;12.00;;;;;;;0.22;94.02;100158.33;105933;1323;22538;-61
2021/12/14 03:10:50;;;;;;;17.50;10.70;;;;;;;0.20;94.06;100160.30;105591;1326;139099;-61
2021/12/14 03:13:18;;;;;;;18.00;11.70;;;;;;;0.20;93.97;100159.14;105913;1325;23530;-61
2021/12/14 03:15:52;;;;;;;16.70;10.70;;;;;;;0.21;94.00;100157.55;105789;1322;139913;-61
2021/12/14 03:18:27;;;;;;;18.40;11.20;;;;;;;0.20;94.02;100155.48;105964;1319;22425;-61
2021/12/14 03:20:59;;;;;;;18.40;11.80;;;;;;;0.20;93.99;100156.73;105722;1324;139047;-61
2021/12/14 03:23:35;;;;;;;16.30;11.00;;;;;;;0.20;93.89;100158.23;105902;1319;22541;-61
2021/12/14 03:26:05;;;;;;;16.60;10.90;;;;;;;0.20;94.02;100161.66;105886;1325;22268;-62
2021/12/14 03:28:34;;;;;;;15.90;10.80;;;;;;;0.20;94.17;100163.92;105754;1325;140366;-62
2021/12/14 03:31:08;;;;;;;17.10;11.60;;;;;;;0.19;94.06;100159.54;104531;1327;22486;-63
2021/12/14 03:33:43;;;;;;;14.00;10.50;;;;;;;0.18;93.69;100162.15;105968;1325;138849;-62
2021/12/14 03:36:20;;;;;;;13.50;10.20;;;;;;;0.17;93.76;100162.63;104055;1319;24539;-61
2021/12/14 03:39:14;;;;;;;14.70;10.70;;;;;;;0.16;94.02;100164.05;105821;1319;138089;-62
2021/12/14 03:41:57;;;;;;;15.90;10.90;;;;;;;0.16;94.20;100162.39;104981;1331;22394;-62
2021/12/14 03:44:29;;;;;;;17.10;11.60;;;;;;;0.17;94.09;100160.35;104443;1328;22459;-62
2021/12/14 03:47:03;;;;;;;15.90;10.90;;;;;;;0.18;93.80;100162.76;104861;1333;138719;-61
2021/12/14 03:49:39;;;;;;;18.50;11.30;;;;;;;0.16;93.87;100160.45;105080;1333;22455;-61
2021/12/14 03:52:09;;;;;;;17.60;11.60;;;;;;;0.14;93.75;100161.92;104909;1334;138063;-61
2021/12/14 03:54:38;;;;;;;16.60;10.80;;;;;;;0.14;93.98;100163.98;105105;1331;22358;-61
2021/12/14 03:57:06;;;;;;;16.40;11.00;;;;;;;0.12;93.85;100162.52;104976;1333;138210;-61
2021/12/14 03:59:34;;;;;;;15.90;10.70;;;;;;;0.13;93.96;100166.90;104941;1327;23172;-61
2021/12/14 04:02:04;;;;;;;15.70;9.40;;;;;;;0.13;93.88;100167.39;104944;1327;22532;-61
2021/12/14 04:04:37;;;;;;;17.30;10.50;;;;;;;0.14;93.58;100173.25;104918;1333;138858;-61
2021/12/14 04:07:06;;;;;;;15.60;10.40;;;;;;;0.13;93.73;100176.41;105011;1334;22486;-61
2021/12/14 04:09:36;;;;;;;17.40;10.80;;;;;;;0.12;93.65;100174.83;104890;1331;138217;-61
2021/12/14 04:12:08;;;;;;;17.70;11.20;;;;;;;0.12;93.73;100175.80;105008;1328;23273;-61
2021/12/14 04:14:38;;;;;;;19.80;11.60;;;;;;;0.12;93.97;100177.84;104812;1333;139232;-61
2021/12/14 04:17:06;;;;;;;18.80;12.30;;;;;;;0.14;93.77;100181.22;105089;1329;23300;-61
2021/12/14 04:19:35;;;;;;;17.60;11.80;;;;;;;0.14;93.79;100177.63;105652;1323;22541;-61
2021/12/14 04:22:12;;;;;;;16.90;10.70;;;;;;;0.14;93.85;100180.22;105807;1323;138272;-61
2021/12/14 04:24:40;;;;;;;14.60;9.70;;;;;;;0.14;93.82;100181.38;105910;1324;22404;-61
2021/12/14 04:27:11;;;;;;;14.50;10.30;;;;;;;0.13;93.83;100182.96;105955;1319;138276;-61
2021/12/14 04:29:39;;;;;;;14.80;10.10;;;;;;;0.12;93.73;100183.10;106071;1319;22578;-61
2021/12/14 04:32:09;;;;;;;18.90;12.10;;;;;;;0.12;93.39;100183.94;105888;1322;22443;-61
2021/12/14 04:34:38;;;;;;;17.60;12.20;;;;;;;0.13;93.58;100184.95;105282;1325;138278;-61
2021/12/14 04:37:06;;;;;;;21.40;12.20;;;;;;;0.14;93.81;100187.68;106090;1320;23309;-61
2021/12/14 04:39:46;;;;;;;19.80;12.90;;;;;;;0.13;93.56;100187.22;105813;1325;138671;-61
2021/12/14 04:53:51;;;;;;;;;;;;;;;0.16;93.87;100195.11;105107;1333;22515;-62
2021/12/14 04:56:37;;;;;;;20.10;13.80;;;;;;;0.14;93.76;100195.17;105126;1330;23089;-62
2021/12/14 04:59:07;;;;;;;23.30;14.90;;;;;;;0.15;94.07;100198.11;104953;1328;138416;-62
2021/12/14 05:01:36;;;;;;;23.30;13.90;;;;;;;0.14;93.70;100197.45;105055;1327;23834;-62
2021/12/14 05:04:06;;;;;;;19.40;13.00;;;;;;;0.17;93.98;100204.50;104957;1327;139544;-62
2021/12/14 05:06:48;;;;;;;23.30;14.00;;;;;;;0.16;93.69;100204.90;104960;1331;22523;-57
2021/12/14 05:09:23;;;;;;;22.60;14.00;;;;;;;0.16;94.06;100209.21;104827;1332;138689;-57
2021/12/14 05:12:15;;;;;;;26.60;14.70;;;;;;;0.15;94.00;100210.95;105066;1332;23551;-58
2021/12/14 05:15:08;;;;;;;25.30;13.70;;;;;;;0.14;93.78;100214.69;104800;1326;139862;-58
2021/12/14 05:17:41;;;;;;;19.50;12.50;;;;;;;0.12;93.80;100216.09;105800;1322;22478;-57
2021/12/14 05:20:10;;;;;;;29.10;14.90;;;;;;;0.12;93.65;100212.95;105909;1319;23756;-57
2021/12/14 05:22:41;;;;;;;44.80;26.90;;;;;;;0.13;93.91;100218.04;105779;1320;139000;-57
2021/12/14 05:25:20;;;;;;;149.20;69.60;;;;;;;0.13;94.08;100220.80;105977;1319;22841;-56
2021/12/14 05:27:52;;;;;;;84.80;48.40;;;;;;;0.14;93.63;100222.64;105774;1325;138638;-56
2021/12/14 05:30:28;;;;;;;55.00;29.50;;;;;;;0.15;93.67;100224.29;106029;1319;22507;-57
2021/12/14 05:33:08;;;;;;;41.00;26.20;;;;;;;0.15;93.69;100225.41;105764;1319;140145;-57
2021/12/14 05:35:38;;;;;;;67.10;38.20;;;;;;;0.14;93.74;100223.09;105923;1325;22419;-62
2021/12/14 05:38:11;;;;;;;43.00;29.20;;;;;;;0.13;93.56;100224.60;105870;1325;22597;-62
2021/12/14 05:40:58;;;;;;;32.60;21.20;;;;;;;0.13;93.72;100229.79;105846;1319;138349;-62
2021/12/14 05:43:31;;;;;;;27.20;16.80;;;;;;;0.13;93.74;100225.13;105990;1318;22570;-62
2021/12/14 05:46:13;;;;;;;24.50;14.90;;;;;;;0.13;93.76;100225.17;105942;1323;138385;-62
2021/12/14 05:49:11;;;;;;;31.20;17.10;;;;;;;0.14;94.22;100221.85;105715;1321;22503;-62
2021/12/14 05:51:39;;;;;;;28.10;16.60;;;;;;;0.14;93.82;100227.63;105983;1317;139524;-62
2021/12/14 05:54:08;;;;;;;27.90;17.00;;;;;;;0.14;94.00;100230.72;106017;1319;22469;-61
2021/12/14 05:56:36;;;;;;;30.60;17.60;;;;;;;0.14;93.86;100230.92;106094;1319;22542;-62
2021/12/14 05:59:04;;;;;;;26.40;16.20;;;;;;;0.14;93.87;100235.74;105121;1323;139468;-62
2021/12/14 06:01:33;;;;;;;24.70;15.80;;;;;;;0.15;94.02;100233.61;105929;1322;23636;-61
2021/12/14 06:04:07;;;;;;;22.60;16.10;;;;;;;0.14;93.96;100234.21;105822;1323;138303;-61
2021/12/14 06:06:52;;;;;;;22.00;13.90;;;;;;;0.15;94.18;100235.21;105919;1322;22457;-61
2021/12/14 06:09:31;;;;;;;23.10;15.50;;;;;;;0.15;93.98;100235.30;106007;1319;139034;-62
2021/12/14 06:12:11;;;;;;;25.20;14.50;;;;;;;0.14;93.75;100233.55;105883;1322;23708;-61
2021/12/14 06:14:52;;;;;;;23.70;15.60;;;;;;;0.14;93.66;100232.20;105930;1323;143204;-63
2021/12/14 06:17:22;;;;;;;26.20;16.30;;;;;;;0.13;93.62;100234.64;105881;1319;22449;-61
2021/12/14 06:19:53;;;;;;;26.50;16.40;;;;;;;0.14;93.76;100234.46;105920;1321;22463;-62
2021/12/14 06:22:31;;;;;;;24.90;15.30;;;;;;;0.14;93.78;100232.83;105857;1321;138670;-62
2021/12/14 06:25:01;;;;;;;21.40;14.70;;;;;;;0.14;93.81;100236.27;106044;1319;22404;-62
2021/12/14 06:27:30;;;;;;;21.80;13.90;;;;;;;0.14;93.77;100236.31;105799;1323;139637;-62
2021/12/14 06:30:13;;;;;;;25.30;16.70;;;;;;;0.10;93.85;100241.69;105931;1318;23224;-62
2021/12/14 06:32:45;;;;;;;22.40;13.90;;;;;;;0.09;93.92;100245.98;105887;1321;22441;-62
2021/12/14 06:35:17;;;;;;;25.20;15.40;;;;;;;0.09;93.86;100246.67;105778;1323;138047;-58
2021/12/14 06:38:29;;;;;;;22.20;15.00;;;;;;;0.09;93.74;100249.02;105900;1323;22388;-57
2021/12/14 06:41:06;;;;;;;25.30;16.60;;;;;;;0.08;93.82;100247.14;105741;1319;138063;-57
2021/12/14 06:43:53;;;;;;;25.80;17.60;;;;;;;0.08;93.78;100246.58;105716;1321;22631;-57
2021/12/14 06:46:34;;;;;;;30.30;18.20;;;;;;;0.09;93.45;100247.08;105741;1325;138843;-57
2021/12/14 06:49:04;;;;;;;27.10;18.00;;;;;;;0.08;93.50;100249.29;106026;1319;22421;-57
2021/12/14 06:51:39;;;;;;;25.50;16.10;;;;;;;0.07;93.45;100246.01;105902;1319;140174;-56
2021/12/14 06:54:19;;;;;;;29.90;18.50;;;;;;;0.05;93.40;100246.54;105727;1322;22579;-56
2021/12/14 06:57:01;;;;;;;27.90;16.70;;;;;;;0.05;93.47;100249.02;105969;1318;139712;-56
2021/12/14 06:59:47;;;;;;;29.80;17.50;;;;;;;0.04;93.46;100253.23;105900;1319;22496;-56
2021/12/14 07:02:48;;;;;;;29.70;17.30;;;;;;;0.05;93.47;100252.84;105942;1321;24435;-56
2021/12/14 07:05:26;;;;;;;24.00;15.50;;;;;;;0.03;93.19;100254.24;105588;1325;138557;-62
2021/12/14 07:07:59;;;;;;;23.40;15.80;;;;;;;0.04;93.15;100255.45;106073;1319;22442;-62
2021/12/14 07:10:34;;;;;;;29.40;18.20;;;;;;;0.03;93.52;100252.64;105705;1322;138842;-62
2021/12/14 07:13:10;;;;;;;31.40;19.00;;;;;;;0.03;93.34;100256.02;106089;1319;22458;-62
2021/12/14 07:15:38;;;;;;;33.40;18.80;;;;;;;0.04;93.28;100259.34;105679;1322;139526;-62
2021/12/14 07:18:07;;;;;;;27.80;18.50;;;;;;;0.05;93.54;100258.94;106078;1319;22604;-61
2021/12/14 07:20:44;;;;;;;27.80;17.10;;;;;;;0.04;93.23;100258.80;106043;1318;22462;-61
2021/12/14 07:23:21;;;;;;;27.80;18.00;;;;;;;0.04;93.40;100259.66;105886;1323;138143;-61
2021/12/14 07:25:57;;;;;;;31.50;20.90;;;;;;;0.04;93.61;100256.19;106107;1323;22664;-61
2021/12/14 07:28:42;;;;;;;29.70;19.20;;;;;;;0.04;93.51;100258.84;106099;1320;139200;-62
2021/12/14 07:31:19;;;;;;;28.40;18.90;;;;;;;0.04;93.47;100256.52;106137;1319;22386;-61
2021/12/14 07:33:56;;;;;;;31.00;19.00;;;;;;;0.05;93.58;100258.16;106055;1319;138318;-61
2021/12/14 07:36:31;;;;;;;28.50;18.40;;;;;;;0.07;93.50;100253.17;106128;1322;22486;-61
2021/12/14 07:39:10;;;;;;;28.70;18.10;;;;;;;0.08;93.72;100252.67;105560;1323;22467;-61
2021/12/14 07:41:44;;;;;;;33.80;18.20;;;;;;;0.08;93.61;100252.80;105902;1319;138015;-61
2021/12/14 07:44:19;;;;;;;31.40;18.70;;;;;;;0.08;93.42;100253.94;106167;1319;22479;-61
2021/12/14 07:46:55;;;;;;;33.50;19.30;;;;;;;0.08;93.57;100258.50;106120;1319;138334;-61
2021/12/14 07:49:36;;;;;;;33.90;19.00;;;;;;;0.10;93.55;100257.86;106201;1319;22560;-61
2021/12/14 07:52:14;;;;;;;35.00;20.20;;;;;;;0.10;93.47;100258.86;106125;1318;138142;-61
2021/12/14 07:54:47;;;;;;;35.50;19.90;;;;;;;0.10;93.56;100265.95;106150;1319;22480;-61
2021/12/14 07:57:25;;;;;;;31.90;18.20;;;;;;;0.11;93.74;100268.23;106059;1318;138428;-61
2021/12/14 08:00:07;;;;;;;39.10;19.00;;;;;;;0.12;93.66;100268.07;106201;1319;22539;-61
2021/12/14 08:02:41;;;;;;;35.90;19.20;;;;;;;0.13;93.40;100265.19;105255;1325;22288;-61
2021/12/14 08:05:19;;;;;;;36.10;23.00;;;;;;;0.14;93.25;100265.41;106088;1319;139536;-61
2021/12/14 08:07:49;;;;;;;34.90;22.50;;;;;;;0.16;93.45;100258.73;106238;1316;22298;-61
2021/12/14 08:10:29;;;;;;;33.90;19.10;;;;;;;0.16;93.32;100256.88;105823;1321;138340;-60
2021/12/14 08:13:09;;;;;;;29.20;18.00;;;;;;;0.16;93.53;100257.11;106194;1318;22483;-60
2021/12/14 08:15:42;;;;;;;27.10;17.30;;;;;;;0.17;93.61;100258.75;105257;1319;140005;-60
2021/12/14 08:18:17;;;;;;;26.20;16.90;;;;;;;0.17;93.41;100255.17;102236;1319;22607;-59
2021/12/14 08:20:52;;;;;;;28.10;16.60;;;;;;;0.18;93.52;100254.50;106037;1319;22423;-60
2021/12/14 08:23:37;;;;;;;28.80;16.50;;;;;;;0.19;93.62;100254.84;106101;1319;139747;-60
2021/12/14 08:26:05;;;;;;;27.50;17.20;;;;;;;0.18;93.37;100252.39;106207;1319;22488;-61
2021/12/14 08:28:45;;;;;;;27.20;17.60;;;;;;;0.18;93.52;100250.59;105865;1319;301518;-61
2021/12/14 08:31:13;;;;;;;28.20;19.20;;;;;;;0.18;93.40;100250.45;106214;1318;22585;-60
2021/12/14 08:33:42;;;;;;;33.30;21.20;;;;;;;0.19;93.59;100251.59;106072;1319;138270;-60
2021/12/14 08:36:11;;;;;;;30.20;19.40;;;;;;;0.19;93.60;100256.21;105290;1320;22422;-61
2021/12/14 08:38:41;;;;;;;28.30;18.20;;;;;;;0.20;93.58;100260.06;106222;1319;22641;-60
2021/12/14 08:41:16;;;;;;;26.10;16.10;;;;;;;0.21;93.63;100259.25;106067;1318;138261;-60
2021/12/14 08:43:48;;;;;;;24.70;15.40;;;;;;;0.22;93.31;100261.26;106054;1319;22523;-61
2021/12/14 08:46:20;;;;;;;25.20;15.50;;;;;;;0.21;93.32;100257.03;106106;1317;139414;-60
2021/12/14 08:48:52;;;;;;;22.70;15.30;;;;;;;0.22;93.50;100261.06;106188;1318;22395;-60
2021/12/14 08:51:30;;;;;;;24.70;16.60;;;;;;;0.23;93.64;100259.71;106113;1316;139045;-62
2021/12/14 08:54:02;;;;;;;24.90;15.20;;;;;;;0.23;93.46;100258.45;106245;1319;23292;-61
2021/12/14 08:56:32;;;;;;;24.30;15.80;;;;;;;0.21;93.27;100255.83;106212;1318;22563;-61
2021/12/14 08:59:00;;;;;;;21.60;15.40;;;;;;;0.20;93.34;100256.23;106101;1319;138165;-61
2021/12/14 09:01:29;;;;;;;28.40;17.00;;;;;;;0.21;93.18;100250.84;106197;1319;23202;-61
2021/12/14 09:04:00;;;;;;;24.30;15.60;;;;;;;0.22;93.30;100250.38;106087;1320;138498;-61
2021/12/14 09:06:30;;;;;;;33.60;18.00;;;;;;;0.23;93.06;100252.41;106209;1320;22465;-61
2021/12/14 09:09:00;;;;;;;29.00;16.10;;;;;;;0.24;93.28;100245.84;106215;1319;23586;-61
2021/12/14 09:11:30;;;;;;;30.90;16.30;;;;;;;0.26;93.28;100253.08;106049;1319;139170;-61
2021/12/14 09:13:58;;;;;;;23.50;16.10;;;;;;;0.23;92.87;100251.08;106202;1318;22561;-61
2021/12/14 09:16:29;;;;;;;26.60;17.20;;;;;;;0.24;93.15;100251.84;106036;1319;138493;-61
2021/12/14 09:19:10;;;;;;;27.40;18.00;;;;;;;0.25;93.06;100251.64;106190;1319;22550;-61
2021/12/14 09:21:41;;;;;;;28.90;17.10;;;;;;;0.26;92.93;100251.48;106131;1319;138601;-59
2021/12/14 09:24:14;;;;;;;23.30;16.40;;;;;;;0.28;92.93;100252.01;106185;1318;22494;-60
2021/12/14 09:26:44;;;;;;;23.40;15.60;;;;;;;0.29;92.83;100254.69;106211;1319;22549;-60
2021/12/14 09:29:15;;;;;;;24.00;15.60;;;;;;;0.30;93.07;100254.05;106111;1318;138168;-61
2021/12/14 09:31:46;;;;;;;22.80;15.70;;;;;;;0.29;92.88;100251.64;105714;1317;23261;-61
2021/12/14 09:34:16;;;;;;;24.20;15.60;;;;;;;0.29;92.82;100252.91;106242;1315;138855;-61
2021/12/14 09:36:44;;;;;;;25.70;16.20;;;;;;;0.30;92.68;100249.63;106379;1315;23337;-60
2021/12/14 09:39:14;;;;;;;26.00;15.20;;;;;;;0.29;92.72;100248.59;106366;1316;22991;-60
2021/12/14 09:41:45;;;;;;;25.60;15.50;;;;;;;0.29;92.49;100247.73;106301;1316;139863;-61
2021/12/14 09:44:13;;;;;;;24.00;16.20;;;;;;;0.28;92.59;100242.48;106319;1315;22479;-60
2021/12/14 09:46:41;;;;;;;23.50;15.90;;;;;;;0.29;92.37;100245.29;106217;1315;139339;-60
2021/12/14 09:49:10;;;;;;;28.30;17.30;;;;;;;0.29;92.58;100240.09;106323;1315;22447;-61
2021/12/14 09:51:42;;;;;;;29.10;18.60;;;;;;;0.29;92.33;100239.31;106224;1315;138327;-60
2021/12/14 09:54:12;;;;;;;26.20;17.00;;;;;;;0.29;92.59;100239.84;106313;1316;22629;-59
2021/12/14 09:56:47;;;;;;;27.80;16.70;;;;;;;0.30;92.57;100236.52;106338;1315;22513;-59
2021/12/14 09:59:15;;;;;;;26.60;17.80;;;;;;;0.30;92.26;100237.60;106175;1315;138135;-59
2021/12/14 10:01:47;;;;;;;26.70;17.00;;;;;;;0.28;92.26;100235.92;106283;1316;23286;-59
2021/12/14 10:04:19;;;;;;;28.80;15.70;;;;;;;0.25;92.22;100231.77;106194;1316;138695;-60
2021/12/14 10:06:49;;;;;;;33.10;18.10;;;;;;;0.24;92.16;100231.30;106330;1315;23295;-60
2021/12/14 10:09:22;;;;;;;24.00;16.10;;;;;;;0.25;92.25;100228.15;106328;1316;22542;-59
2021/12/14 10:14:35;;;;;;;22.90;15.40;;;;;;;0.27;91.97;100226.91;106219;1316;22321;-59
2021/12/14 10:17:07;;;;;;;;;;;;;;;0.28;92.33;100224.42;102982;1316;138221;-60
2021/12/14 10:19:36;;;;;;;26.60;15.10;;;;;;;0.31;92.24;100222.85;102151;1315;22591;-58
2021/12/14 10:22:16;;;;;;;22.90;14.40;;;;;;;0.33;92.06;100214.04;105937;1315;140165;-60
2021/12/14 10:24:44;;;;;;;18.90;13.40;;;;;;;0.34;92.18;100216.20;106134;1315;22602;-60
2021/12/14 10:27:15;;;;;;;18.70;11.80;;;;;;;0.35;91.80;100215.94;106164;1315;23413;-60
2021/12/14 10:29:44;;;;;;;17.00;12.10;;;;;;;0.34;91.85;100218.38;105719;1317;138527;-60
2021/12/14 10:32:18;;;;;;;18.90;12.70;;;;;;;0.37;91.94;100220.29;106313;1315;22455;-60
2021/12/14 10:34:50;;;;;;;19.90;12.60;;;;;;;0.37;91.58;100220.02;103238;1315;138724;-60
2021/12/14 10:37:37;;;;;;;19.10;13.40;;;;;;;0.38;91.85;100220.33;106178;1318;22401;-61
2021/12/14 10:46:00;;;;;;;22.00;14.00;;;;;;;0.40;91.69;100213.45;106103;1316;139027;-61
2021/12/14 10:48:31;;;;;;;22.90;13.90;;;;;;;0.42;91.73;100217.50;106180;1315;22560;-60
2021/12/14 10:51:01;;;;;;;21.70;13.40;;;;;;;0.42;91.83;100213.41;106190;1315;23584;-60
2021/12/14 10:53:29;;;;;;;20.90;13.70;;;;;;;0.42;91.71;100219.34;106078;1315;137996;-60
2021/12/14 10:56:03;;;;;;;27.90;14.90;;;;;;;0.38;91.73;100214.56;106208;1315;22467;-60
2021/12/14 10:58:30;;;;;;;28.20;15.30;;;;;;;0.36;91.87;100214.39;106150;1315;141624;-60
2021/12/14 11:01:19;;;;;;;20.20;13.70;;;;;;;0.37;91.90;100216.14;106191;1316;22402;-60
2021/12/14 11:03:50;;;;;;;24.40;14.40;;;;;;;0.36;91.89;100215.00;106232;1315;140152;-60
2021/12/14 11:06:22;;;;;;;25.70;13.60;;;;;;;0.33;91.91;100213.98;106188;1315;23211;-60
2021/12/14 11:11:45;;;;;;;21.10;12.80;;;;;;;0.29;92.41;100207.48;106130;1315;139058;-61
2021/12/14 11:14:22;;;;;;;29.00;14.40;;;;;;;0.26;92.21;100209.36;106204;1315;22309;-61
2021/12/14 11:19:41;;;;;;;26.80;13.30;;;;;;;0.23;92.67;100205.02;102037;1316;26145;-61
2021/12/14 11:22:17;;;;;;;28.90;14.20;;;;;;;0.21;92.73;100203.41;101972;1315;139335;-59
2021/12/14 11:24:48;;;;;;;27.50;14.70;;;;;;;0.20;92.81;100206.09;102002;1316;22569;-61
2021/12/14 11:27:23;;;;;;;29.30;14.40;;;;;;;0.18;92.96;100208.14;102014;1316;22589;-59
2021/12/14 11:30:07;;;;;;;29.70;15.20;;;;;;;0.16;92.95;100206.84;106155;1316;138939;-59
2021/12/14 11:32:40;;;;;;;27.70;13.80;;;;;;;0.15;93.38;100212.25;106186;1315;22476;-59
2021/12/14 11:35:21;;;;;;;31.30;14.20;;;;;;;0.14;93.18;100213.81;106096;1315;139034;-59
2021/12/14 11:37:50;;;;;;;30.80;14.40;;;;;;;0.13;93.50;100216.05;106248;1316;22410;-60
2021/12/14 11:40:20;;;;;;;25.10;13.10;;;;;;;0.12;93.38;100215.99;106117;1315;138208;-59
2021/12/14 11:42:48;;;;;;;29.20;14.10;;;;;;;0.11;93.60;100220.75;106273;1315;22481;-60
2021/12/14 11:45:19;;;;;;;32.50;14.50;;;;;;;0.11;93.84;100219.40;106202;1315;22411;-59
2021/12/14 11:47:52;;;;;;;29.20;15.20;;;;;;;0.13;93.46;100222.79;106138;1315;139986;-59
2021/12/14 11:50:33;;;;;;;36.40;17.00;;;;;;;0.14;93.63;100223.02;106201;1314;22530;-61
2021/12/14 11:53:05;;;;;;;32.70;15.20;;;;;;;0.15;93.84;100225.23;106139;1316;140131;-61
2021/12/14 11:55:57;;;;;;;42.00;18.20;;;;;;;0.15;93.79;100225.37;106240;1315;22449;-61
2021/12/14 11:58:36;;;;;;;31.40;15.40;;;;;;;0.14;93.95;100221.68;106125;1315;139834;-61
2021/12/14 12:01:29;;;;;;;34.20;17.80;;;;;;;0.14;93.97;100223.42;106224;1315;22392;-61
2021/12/14 12:04:00;;;;;;;37.50;17.20;;;;;;;0.15;93.98;100223.67;106114;1315;139259;-60
2021/12/14 12:12:22;;;;;;;44.70;18.50;;;;;;;0.15;94.06;100217.73;106124;1315;138587;-60
2021/12/14 12:14:59;;;;;;;42.00;18.40;;;;;;;0.12;94.21;100223.23;106173;1315;22600;-61
2021/12/14 12:17:43;;;;;;;38.70;18.10;;;;;;;0.09;94.17;100221.66;106099;1316;139166;-61
2021/12/14 12:20:34;;;;;;;35.40;16.80;;;;;;;0.08;94.16;100225.31;106207;1316;22417;-61
2021/12/14 12:23:03;;;;;;;50.50;18.50;;;;;;;0.08;94.30;100226.65;106123;1315;138281;-61